Benjamin — 008021 — position and weather

sailwx.info

Track history (hours):
 
Tides and Currents Weather Stations Pressure Air Temp Water Temp Dewpoint Dewpoint Depression Visibility Wind Speed Wind Dir Waves Ship Positions

Benjamin

Last reported at 2017-Sep-26 10:43 UTC. Time now 2017-Nov-22 21:50 UTC.
Position N 44°16' E 028°07'.
Warning: this ship's position is 57 days out of date.

Length 105 m; draft 0.4 m.

Type: Ship. MMSI: 269057076.

Date/timePositionNaut miles runAvg speedWind from/ knotsBaromVisibWave heightAir tempDewpointWater temp
2017-Sep-26 10:43N 44°16' E 028°07'2 6.7
2017-Sep-26 10:22N 44°16' E 028°10'2 6.8
2017-Sep-26 10:00N 44°15' E 028°14'3 6.7
2017-Sep-26 09:30N 44°15' E 028°18'3 6.2
2017-Sep-26 09:01N 44°14' E 028°22'3 5.0
2017-Sep-26 08:28N 44°14' E 028°26'5 5.5
2017-Sep-26 07:34N 44°16' E 028°32'0 4.4
2017-Sep-26 07:31N 44°16' E 028°32'0 0.7
2017-Sep-26 07:00N 44°16' E 028°33'2 3.5
2017-Sep-26 06:31N 44°16' E 028°35'3 5.5
2017-Sep-26 06:01N 44°19' E 028°37'1 1.3
2017-Sep-26 05:30N 44°19' E 028°38'1 2.3
2017-Sep-26 05:01N 44°20' E 028°39'1 1.8
2017-Sep-26 04:31N 44°20' E 028°40'0 0.0
2017-Sep-26 04:00N 44°20' E 028°40'0 0.0
2017-Sep-26 03:30N 44°20' E 028°40'0 0.0
2017-Sep-26 03:00N 44°20' E 028°40'0 0.0
2017-Sep-26 02:30N 44°20' E 028°40'0 0.0
2017-Sep-26 02:01N 44°20' E 028°40'0 0.0
2017-Sep-26 01:31N 44°20' E 028°40'0 0.0
2017-Sep-26 01:01N 44°20' E 028°40'0 0.0
2017-Sep-26 00:31N 44°20' E 028°40'0 0.0
2017-Sep-26 00:01N 44°20' E 028°40'0 0.0
2017-Sep-25 23:31N 44°20' E 028°40'0 0.0
2017-Sep-25 23:01N 44°20' E 028°40'0 0.0
2017-Sep-25 22:31N 44°20' E 028°40'0 0.0
2017-Sep-25 22:00N 44°20' E 028°40'0 0.0
2017-Sep-25 21:31N 44°20' E 028°40'0 0.0
2017-Sep-25 21:01N 44°20' E 028°40'0 0.0
2017-Sep-25 20:30N 44°20' E 028°40'0 0.0
2017-Sep-25 20:00N 44°20' E 028°40'0 0.0
2017-Sep-25 19:31N 44°20' E 028°40'0 0.0
2017-Sep-25 19:00N 44°20' E 028°40'0 0.0
2017-Sep-25 18:31N 44°20' E 028°40'0 0.0
2017-Sep-25 18:01N 44°20' E 028°40'0 0.0
2017-Sep-25 17:30N 44°20' E 028°40'0 0.0
2017-Sep-25 17:01N 44°20' E 028°40'0 0.0
2017-Sep-25 16:31N 44°20' E 028°40'0 0.0
2017-Sep-25 16:01N 44°20' E 028°40'0 0.0
2017-Sep-25 15:31N 44°20' E 028°40'0 0.0
2017-Sep-25 15:01N 44°20' E 028°40'0 0.0
2017-Sep-25 14:31N 44°20' E 028°40'0 0.0
2017-Sep-25 14:01N 44°20' E 028°40'0 0.0
2017-Sep-25 13:31N 44°20' E 028°40'0 0.0
2017-Sep-25 13:01N 44°20' E 028°40'0 0.0
2017-Sep-25 12:31N 44°20' E 028°40'0 0.0
2017-Sep-25 12:00N 44°20' E 028°40'0 0.0
2017-Sep-25 11:31N 44°20' E 028°40'0 0.0
2017-Sep-25 11:01N 44°20' E 028°40'0 0.0
2017-Sep-25 10:31N 44°20' E 028°40'0 0.0
2017-Sep-25 10:00N 44°20' E 028°40'0 0.0
2017-Sep-25 09:31N 44°20' E 028°40'0 0.0
2017-Sep-25 09:00N 44°20' E 028°40'0 0.0
2017-Sep-25 08:30N 44°20' E 028°40'0 0.0
2017-Sep-25 08:01N 44°20' E 028°40'0 0.0
2017-Sep-25 07:31N 44°20' E 028°40'0 0.0
2017-Sep-25 07:00N 44°20' E 028°40'0 0.0
2017-Sep-25 06:30N 44°20' E 028°40'0 0.0
2017-Sep-25 06:00N 44°20' E 028°40'0 0.0
2017-Sep-25 05:31N 44°20' E 028°40'0 0.0
2017-Sep-25 05:00N 44°20' E 028°40'0 0.0
2017-Sep-25 04:31N 44°20' E 028°40'0 0.0
2017-Sep-25 04:01N 44°20' E 028°40'0 0.0
2017-Sep-25 03:31N 44°20' E 028°40'0 0.0
2017-Sep-25 03:01N 44°20' E 028°40'0 0.0
2017-Sep-25 02:31N 44°20' E 028°40'0 0.0
2017-Sep-25 02:01N 44°20' E 028°40'0 0.0
2017-Sep-25 01:31N 44°20' E 028°40'0 0.5
2017-Sep-25 01:01N 44°20' E 028°40'2 3.3
2017-Sep-25 00:31N 44°19' E 028°38'0 0.0
2017-Sep-25 00:01N 44°19' E 028°38'0 0.0
2017-Sep-24 23:31N 44°19' E 028°38'0 0.0
2017-Sep-24 23:01N 44°19' E 028°38'0 0.0
2017-Sep-24 22:31N 44°19' E 028°38'0 0.0
2017-Sep-24 22:01N 44°19' E 028°38'0 0.0
2017-Sep-24 21:30N 44°19' E 028°38'0 0.0
2017-Sep-24 21:00N 44°19' E 028°38'0 0.0
2017-Sep-24 20:31N 44°19' E 028°38'0 0.0
2017-Sep-24 20:01N 44°19' E 028°38'0 0.0
2017-Sep-24 19:31N 44°19' E 028°38'0 0.0
2017-Sep-24 19:00N 44°19' E 028°38'0 0.0
2017-Sep-24 18:31N 44°19' E 028°38'0 0.0
2017-Sep-24 18:01N 44°19' E 028°38'0 0.0
2017-Sep-24 17:31N 44°19' E 028°38'0 0.0
2017-Sep-24 17:01N 44°19' E 028°38'0 0.0
2017-Sep-24 16:31N 44°19' E 028°38'0 0.0
2017-Sep-24 16:01N 44°19' E 028°38'0 0.0
2017-Sep-24 15:31N 44°19' E 028°38'0 0.0
2017-Sep-24 15:00N 44°19' E 028°38'0 0.0
2017-Sep-24 14:31N 44°19' E 028°38'0 0.0
2017-Sep-24 14:01N 44°19' E 028°38'0 0.0
2017-Sep-24 13:31N 44°19' E 028°38'0 0.0
2017-Sep-24 13:01N 44°19' E 028°38'0 0.0
2017-Sep-24 12:31N 44°19' E 028°38'0 0.0
2017-Sep-24 12:00N 44°19' E 028°38'0 0.0
2017-Sep-24 11:30N 44°19' E 028°38'0 0.0
2017-Sep-24 11:01N 44°19' E 028°38'0 0.0
2017-Sep-24 10:31N 44°19' E 028°38'0 0.0
2017-Sep-24 10:01N 44°19' E 028°38'0 0.0
2017-Sep-24 09:31N 44°19' E 028°38'0 0.0
2017-Sep-24 09:00N 44°19' E 028°38'0 0.0
2017-Sep-24 08:31N 44°19' E 028°38'0 0.0
2017-Sep-24 08:01N 44°19' E 028°38'0 0.0
2017-Sep-24 07:30N 44°19' E 028°38'0 0.0
2017-Sep-24 07:01N 44°19' E 028°38'0 0.0
2017-Sep-24 06:31N 44°19' E 028°38'0 0.0
2017-Sep-24 06:00N 44°19' E 028°38'0 0.0
2017-Sep-24 05:30N 44°19' E 028°38'0 0.0
2017-Sep-24 05:01N 44°19' E 028°38'0 0.0
2017-Sep-24 04:31N 44°19' E 028°38'0 0.0
2017-Sep-24 04:00N 44°19' E 028°38'0 0.0
2017-Sep-24 03:30N 44°19' E 028°38'0 0.0
2017-Sep-24 03:00N 44°19' E 028°38'0 0.0
2017-Sep-24 02:30N 44°19' E 028°38'0 0.0
2017-Sep-24 02:01N 44°19' E 028°38'0 0.0
2017-Sep-24 01:30N 44°19' E 028°38'0 0.0
2017-Sep-24 01:00N 44°19' E 028°38'0 0.0
2017-Sep-24 00:31N 44°19' E 028°38'0 0.0
2017-Sep-24 00:00N 44°19' E 028°38'0 0.0
2017-Sep-23 23:31N 44°19' E 028°38'0 0.0
2017-Sep-23 23:01N 44°19' E 028°38'0 0.0
2017-Sep-23 22:30N 44°19' E 028°38'0 0.0
2017-Sep-23 22:01N 44°19' E 028°38'0 0.0
2017-Sep-23 21:31N 44°19' E 028°38'0 0.0
2017-Sep-23 21:01N 44°19' E 028°38'0 0.0
2017-Sep-23 20:30N 44°19' E 028°38'0 0.0
2017-Sep-23 20:01N 44°19' E 028°38'0 0.0
2017-Sep-22 02:01N 44°19' E 028°37'0 0.0
2017-Sep-22 01:31N 44°19' E 028°37'0 0.0
2017-Sep-22 01:01N 44°19' E 028°37'0 0.0
2017-Sep-22 00:31N 44°19' E 028°37'0 0.0
2017-Sep-22 00:00N 44°19' E 028°37'0 0.0
2017-Sep-21 23:30N 44°19' E 028°37'0 0.0
2017-Sep-21 23:00N 44°19' E 028°37'0 0.0
2017-Sep-21 22:31N 44°19' E 028°37'0 0.0
2017-Sep-21 22:01N 44°19' E 028°37'0 0.0
2017-Sep-21 21:31N 44°19' E 028°37'0 0.0
2017-Sep-21 21:01N 44°19' E 028°37'0 0.0
2017-Sep-21 20:31N 44°19' E 028°37'0 0.0
2017-Sep-21 20:01N 44°19' E 028°37'0 0.0
2017-Sep-21 19:30N 44°19' E 028°37'0 0.0
2017-Sep-21 19:00N 44°19' E 028°37'0 0.0
2017-Sep-21 18:31N 44°19' E 028°37'0 0.0
2017-Sep-21 18:00N 44°19' E 028°37'0 0.0
2017-Sep-21 17:30N 44°19' E 028°37'0 0.0
2017-Sep-21 17:01N 44°19' E 028°37'0 0.0
2017-Sep-21 16:30N 44°19' E 028°37'0 0.0
2017-Sep-21 16:01N 44°19' E 028°37'0 0.0
2017-Sep-21 15:31N 44°19' E 028°37'0 0.0
2017-Sep-21 15:01N 44°19' E 028°37'0 0.0
2017-Sep-21 14:31N 44°19' E 028°37'0 0.0
2017-Sep-21 14:01N 44°19' E 028°37'0 0.0
2017-Sep-21 13:31N 44°19' E 028°37'0 0.0
2017-Sep-21 13:01N 44°19' E 028°37'0 0.0
2017-Sep-21 12:31N 44°19' E 028°37'0 0.0
2017-Sep-21 12:01N 44°19' E 028°37'0 0.0
2017-Sep-21 11:31N 44°19' E 028°37'0 0.0
2017-Sep-21 11:00N 44°19' E 028°37'0 0.0
2017-Sep-21 10:30N 44°19' E 028°37'0 0.0
2017-Sep-21 10:01N 44°19' E 028°37'0 0.0
2017-Sep-21 09:30N 44°19' E 028°37'0 0.0
2017-Sep-21 09:01N 44°19' E 028°37'0 0.0
2017-Sep-21 08:30N 44°19' E 028°37'0 0.0
2017-Sep-21 08:01N 44°19' E 028°37'0 0.0
2017-Sep-21 07:30N 44°19' E 028°37'0 0.0
2017-Sep-21 07:00N 44°19' E 028°37'0 0.0
2017-Sep-21 06:31N 44°19' E 028°37'0 0.0
2017-Sep-21 06:01N 44°19' E 028°37'0 0.0
2017-Sep-21 05:31N 44°19' E 028°37'0 0.0
2017-Sep-21 05:00N 44°19' E 028°37'0 0.0
2017-Sep-21 04:31N 44°19' E 028°37'0 0.0
2017-Sep-21 04:01N 44°19' E 028°37'0 0.0
2017-Sep-21 03:31N 44°19' E 028°37'0 0.0
2017-Sep-21 03:00N 44°19' E 028°37'0 0.0
2017-Sep-21 02:30N 44°19' E 028°37'0 0.0
2017-Sep-21 02:01N 44°19' E 028°37'0 0.0
2017-Sep-21 01:30N 44°19' E 028°37'0 0.0
2017-Sep-21 01:00N 44°19' E 028°37'0 0.0
2017-Sep-21 00:30N 44°19' E 028°37'0 0.0
2017-Sep-21 00:00N 44°19' E 028°37'0 0.0
2017-Sep-20 23:30N 44°19' E 028°37'0 0.0
2017-Sep-20 23:00N 44°19' E 028°37'0 0.0
2017-Sep-20 22:31N 44°19' E 028°37'0 0.0
2017-Sep-20 22:00N 44°19' E 028°37'0 0.0
2017-Sep-20 21:31N 44°19' E 028°37'0 0.0
2017-Sep-20 21:01N 44°19' E 028°37'0 0.0
2017-Sep-20 20:30N 44°19' E 028°37'0 0.0
2017-Sep-20 20:01N 44°19' E 028°37'0 0.0
2017-Sep-20 19:30N 44°19' E 028°37'0 0.0
2017-Sep-20 19:00N 44°19' E 028°37'0 0.0
2017-Sep-20 18:30N 44°19' E 028°37'0 0.0
2017-Sep-20 17:57N 44°19' E 028°37'0 0.0
2017-Sep-20 17:30N 44°19' E 028°37'0 0.0
2017-Sep-20 17:00N 44°19' E 028°37'0 0.0
2017-Sep-20 16:30N 44°19' E 028°37'0 0.0
2017-Sep-20 15:59N 44°19' E 028°37'0 0.0
2017-Sep-20 15:30N 44°19' E 028°37'0 0.0
2017-Sep-20 15:00N 44°19' E 028°37'0 0.0
2017-Sep-20 14:00N 44°19' E 028°37'0 0.0
2017-Sep-20 13:31N 44°19' E 028°37'0 0.0
2017-Sep-20 13:00N 44°19' E 028°37'0 0.0
2017-Sep-20 12:30N 44°19' E 028°37'0 0.0
2017-Sep-20 12:00N 44°19' E 028°37'0 0.0
2017-Sep-20 11:30N 44°19' E 028°37'0 0.0
2017-Sep-20 11:01N 44°19' E 028°37'1 2.0
2017-Sep-20 10:31N 44°18' E 028°37'3 6.3
2017-Sep-20 10:00N 44°16' E 028°34'1 2.1
2017-Sep-20 09:30N 44°16' E 028°32'5 5.4
2017-Sep-20 08:34N 44°14' E 028°26'2 6.7
2017-Sep-20 08:14N 44°13' E 028°23'2 6.6
2017-Sep-20 07:59N 44°14' E 028°22'3 6.3
2017-Sep-20 07:30N 44°15' E 028°18'7 7.2
2017-Sep-20 06:31N 44°16' E 028°08'0 6.9
2017-Sep-20 06:30N 44°16' E 028°08'  
2017-Sep-17 06:26N 44°15' E 027°53'27 4.5
2017-Sep-17 00:25N 44°08' E 027°17'0 0.0
2017-Sep-16 23:58N 44°08' E 027°17'0 0.0
2017-Sep-16 23:30N 44°08' E 027°17'0 0.0
2017-Sep-16 23:00N 44°08' E 027°17'0 0.0
2017-Sep-16 22:30N 44°08' E 027°17'0 0.0
2017-Sep-16 22:00N 44°08' E 027°17'0 0.0
2017-Sep-16 21:30N 44°08' E 027°17'0 0.0
2017-Sep-16 21:00N 44°08' E 027°17'0 0.0
2017-Sep-16 20:30N 44°08' E 027°17'  
Track history (hours):
 
Tides and Currents Weather Stations Pressure Air Temp Water Temp Dewpoint Dewpoint Depression Visibility Wind Speed Wind Dir Waves Ship Positions

Benjamin

Last reported at 2017-Sep-26 10:43 UTC. Time now 2017-Nov-22 21:50 UTC.
Position N 44°16' E 028°07'.
Warning: this ship's position is 57 days out of date.

Length 105 m; draft 0.4 m.

Type: Ship. MMSI: 269057076.

Date/timePositionNaut miles runAvg speedWind from/ knotsBaromVisibWave heightAir tempDewpointWater temp
2017-Sep-26 10:43N 44°16' E 028°07'2 6.7
2017-Sep-26 10:22N 44°16' E 028°10'2 6.8
2017-Sep-26 10:00N 44°15' E 028°14'3 6.7
2017-Sep-26 09:30N 44°15' E 028°18'3 6.2
2017-Sep-26 09:01N 44°14' E 028°22'3 5.0
2017-Sep-26 08:28N 44°14' E 028°26'5 5.5
2017-Sep-26 07:34N 44°16' E 028°32'0 4.4
2017-Sep-26 07:31N 44°16' E 028°32'0 0.7
2017-Sep-26 07:00N 44°16' E 028°33'2 3.5
2017-Sep-26 06:31N 44°16' E 028°35'3 5.5
2017-Sep-26 06:01N 44°19' E 028°37'1 1.3
2017-Sep-26 05:30N 44°19' E 028°38'1 2.3
2017-Sep-26 05:01N 44°20' E 028°39'1 1.8
2017-Sep-26 04:31N 44°20' E 028°40'0 0.0
2017-Sep-26 04:00N 44°20' E 028°40'0 0.0
2017-Sep-26 03:30N 44°20' E 028°40'0 0.0
2017-Sep-26 03:00N 44°20' E 028°40'0 0.0
2017-Sep-26 02:30N 44°20' E 028°40'0 0.0
2017-Sep-26 02:01N 44°20' E 028°40'0 0.0
2017-Sep-26 01:31N 44°20' E 028°40'0 0.0
2017-Sep-26 01:01N 44°20' E 028°40'0 0.0
2017-Sep-26 00:31N 44°20' E 028°40'0 0.0
2017-Sep-26 00:01N 44°20' E 028°40'0 0.0
2017-Sep-25 23:31N 44°20' E 028°40'0 0.0
2017-Sep-25 23:01N 44°20' E 028°40'0 0.0
2017-Sep-25 22:31N 44°20' E 028°40'0 0.0
2017-Sep-25 22:00N 44°20' E 028°40'0 0.0
2017-Sep-25 21:31N 44°20' E 028°40'0 0.0
2017-Sep-25 21:01N 44°20' E 028°40'0 0.0
2017-Sep-25 20:30N 44°20' E 028°40'0 0.0
2017-Sep-25 20:00N 44°20' E 028°40'0 0.0
2017-Sep-25 19:31N 44°20' E 028°40'0 0.0
2017-Sep-25 19:00N 44°20' E 028°40'0 0.0
2017-Sep-25 18:31N 44°20' E 028°40'0 0.0
2017-Sep-25 18:01N 44°20' E 028°40'0 0.0
2017-Sep-25 17:30N 44°20' E 028°40'0 0.0
2017-Sep-25 17:01N 44°20' E 028°40'0 0.0
2017-Sep-25 16:31N 44°20' E 028°40'0 0.0
2017-Sep-25 16:01N 44°20' E 028°40'0 0.0
2017-Sep-25 15:31N 44°20' E 028°40'0 0.0
2017-Sep-25 15:01N 44°20' E 028°40'0 0.0
2017-Sep-25 14:31N 44°20' E 028°40'0 0.0
2017-Sep-25 14:01N 44°20' E 028°40'0 0.0
2017-Sep-25 13:31N 44°20' E 028°40'0 0.0
2017-Sep-25 13:01N 44°20' E 028°40'0 0.0
2017-Sep-25 12:31N 44°20' E 028°40'0 0.0
2017-Sep-25 12:00N 44°20' E 028°40'0 0.0
2017-Sep-25 11:31N 44°20' E 028°40'0 0.0
2017-Sep-25 11:01N 44°20' E 028°40'0 0.0
2017-Sep-25 10:31N 44°20' E 028°40'0 0.0
2017-Sep-25 10:00N 44°20' E 028°40'0 0.0
2017-Sep-25 09:31N 44°20' E 028°40'0 0.0
2017-Sep-25 09:00N 44°20' E 028°40'0 0.0
2017-Sep-25 08:30N 44°20' E 028°40'0 0.0
2017-Sep-25 08:01N 44°20' E 028°40'0 0.0
2017-Sep-25 07:31N 44°20' E 028°40'0 0.0
2017-Sep-25 07:00N 44°20' E 028°40'0 0.0
2017-Sep-25 06:30N 44°20' E 028°40'0 0.0
2017-Sep-25 06:00N 44°20' E 028°40'0 0.0
2017-Sep-25 05:31N 44°20' E 028°40'0 0.0
2017-Sep-25 05:00N 44°20' E 028°40'0 0.0
2017-Sep-25 04:31N 44°20' E 028°40'0 0.0
2017-Sep-25 04:01N 44°20' E 028°40'0 0.0
2017-Sep-25 03:31N 44°20' E 028°40'0 0.0
2017-Sep-25 03:01N 44°20' E 028°40'0 0.0
2017-Sep-25 02:31N 44°20' E 028°40'0 0.0
2017-Sep-25 02:01N 44°20' E 028°40'0 0.0
2017-Sep-25 01:31N 44°20' E 028°40'0 0.5
2017-Sep-25 01:01N 44°20' E 028°40'2 3.3
2017-Sep-25 00:31N 44°19' E 028°38'0 0.0
2017-Sep-25 00:01N 44°19' E 028°38'0 0.0
2017-Sep-24 23:31N 44°19' E 028°38'0 0.0
2017-Sep-24 23:01N 44°19' E 028°38'0 0.0
2017-Sep-24 22:31N 44°19' E 028°38'0 0.0
2017-Sep-24 22:01N 44°19' E 028°38'0 0.0
2017-Sep-24 21:30N 44°19' E 028°38'0 0.0
2017-Sep-24 21:00N 44°19' E 028°38'0 0.0
2017-Sep-24 20:31N 44°19' E 028°38'0 0.0
2017-Sep-24 20:01N 44°19' E 028°38'0 0.0
2017-Sep-24 19:31N 44°19' E 028°38'0 0.0
2017-Sep-24 19:00N 44°19' E 028°38'0 0.0
2017-Sep-24 18:31N 44°19' E 028°38'0 0.0
2017-Sep-24 18:01N 44°19' E 028°38'0 0.0
2017-Sep-24 17:31N 44°19' E 028°38'0 0.0
2017-Sep-24 17:01N 44°19' E 028°38'0 0.0
2017-Sep-24 16:31N 44°19' E 028°38'0 0.0
2017-Sep-24 16:01N 44°19' E 028°38'0 0.0
2017-Sep-24 15:31N 44°19' E 028°38'0 0.0
2017-Sep-24 15:00N 44°19' E 028°38'0 0.0
2017-Sep-24 14:31N 44°19' E 028°38'0 0.0
2017-Sep-24 14:01N 44°19' E 028°38'0 0.0
2017-Sep-24 13:31N 44°19' E 028°38'0 0.0
2017-Sep-24 13:01N 44°19' E 028°38'0 0.0
2017-Sep-24 12:31N 44°19' E 028°38'0 0.0
2017-Sep-24 12:00N 44°19' E 028°38'0 0.0
2017-Sep-24 11:30N 44°19' E 028°38'0 0.0
2017-Sep-24 11:01N 44°19' E 028°38'0 0.0
2017-Sep-24 10:31N 44°19' E 028°38'0 0.0
2017-Sep-24 10:01N 44°19' E 028°38'0 0.0
2017-Sep-24 09:31N 44°19' E 028°38'0 0.0
2017-Sep-24 09:00N 44°19' E 028°38'0 0.0
2017-Sep-24 08:31N 44°19' E 028°38'0 0.0
2017-Sep-24 08:01N 44°19' E 028°38'0 0.0
2017-Sep-24 07:30N 44°19' E 028°38'0 0.0
2017-Sep-24 07:01N 44°19' E 028°38'0 0.0
2017-Sep-24 06:31N 44°19' E 028°38'0 0.0
2017-Sep-24 06:00N 44°19' E 028°38'0 0.0
2017-Sep-24 05:30N 44°19' E 028°38'0 0.0
2017-Sep-24 05:01N 44°19' E 028°38'0 0.0
2017-Sep-24 04:31N 44°19' E 028°38'0 0.0
2017-Sep-24 04:00N 44°19' E 028°38'0 0.0
2017-Sep-24 03:30N 44°19' E 028°38'0 0.0
2017-Sep-24 03:00N 44°19' E 028°38'0 0.0
2017-Sep-24 02:30N 44°19' E 028°38'0 0.0
2017-Sep-24 02:01N 44°19' E 028°38'0 0.0
2017-Sep-24 01:30N 44°19' E 028°38'0 0.0
2017-Sep-24 01:00N 44°19' E 028°38'0 0.0
2017-Sep-24 00:31N 44°19' E 028°38'0 0.0
2017-Sep-24 00:00N 44°19' E 028°38'0 0.0
2017-Sep-23 23:31N 44°19' E 028°38'0 0.0
2017-Sep-23 23:01N 44°19' E 028°38'0 0.0
2017-Sep-23 22:30N 44°19' E 028°38'0 0.0
2017-Sep-23 22:01N 44°19' E 028°38'0 0.0
2017-Sep-23 21:31N 44°19' E 028°38'0 0.0
2017-Sep-23 21:01N 44°19' E 028°38'0 0.0
2017-Sep-23 20:30N 44°19' E 028°38'0 0.0
2017-Sep-23 20:01N 44°19' E 028°38'0 0.0
2017-Sep-22 02:01N 44°19' E 028°37'0 0.0
2017-Sep-22 01:31N 44°19' E 028°37'0 0.0
2017-Sep-22 01:01N 44°19' E 028°37'0 0.0
2017-Sep-22 00:31N 44°19' E 028°37'0 0.0
2017-Sep-22 00:00N 44°19' E 028°37'0 0.0
2017-Sep-21 23:30N 44°19' E 028°37'0 0.0
2017-Sep-21 23:00N 44°19' E 028°37'0 0.0
2017-Sep-21 22:31N 44°19' E 028°37'0 0.0
2017-Sep-21 22:01N 44°19' E 028°37'0 0.0
2017-Sep-21 21:31N 44°19' E 028°37'0 0.0
2017-Sep-21 21:01N 44°19' E 028°37'0 0.0
2017-Sep-21 20:31N 44°19' E 028°37'0 0.0
2017-Sep-21 20:01N 44°19' E 028°37'0 0.0
2017-Sep-21 19:30N 44°19' E 028°37'0 0.0
2017-Sep-21 19:00N 44°19' E 028°37'0 0.0
2017-Sep-21 18:31N 44°19' E 028°37'0 0.0
2017-Sep-21 18:00N 44°19' E 028°37'0 0.0
2017-Sep-21 17:30N 44°19' E 028°37'0 0.0
2017-Sep-21 17:01N 44°19' E 028°37'0 0.0
2017-Sep-21 16:30N 44°19' E 028°37'0 0.0
2017-Sep-21 16:01N 44°19' E 028°37'0 0.0
2017-Sep-21 15:31N 44°19' E 028°37'0 0.0
2017-Sep-21 15:01N 44°19' E 028°37'0 0.0
2017-Sep-21 14:31N 44°19' E 028°37'0 0.0
2017-Sep-21 14:01N 44°19' E 028°37'0 0.0
2017-Sep-21 13:31N 44°19' E 028°37'0 0.0
2017-Sep-21 13:01N 44°19' E 028°37'0 0.0
2017-Sep-21 12:31N 44°19' E 028°37'0 0.0
2017-Sep-21 12:01N 44°19' E 028°37'0 0.0
2017-Sep-21 11:31N 44°19' E 028°37'0 0.0
2017-Sep-21 11:00N 44°19' E 028°37'0 0.0
2017-Sep-21 10:30N 44°19' E 028°37'0 0.0
2017-Sep-21 10:01N 44°19' E 028°37'0 0.0
2017-Sep-21 09:30N 44°19' E 028°37'0 0.0
2017-Sep-21 09:01N 44°19' E 028°37'0 0.0
2017-Sep-21 08:30N 44°19' E 028°37'0 0.0
2017-Sep-21 08:01N 44°19' E 028°37'0 0.0
2017-Sep-21 07:30N 44°19' E 028°37'0 0.0
2017-Sep-21 07:00N 44°19' E 028°37'0 0.0
2017-Sep-21 06:31N 44°19' E 028°37'0 0.0
2017-Sep-21 06:01N 44°19' E 028°37'0 0.0
2017-Sep-21 05:31N 44°19' E 028°37'0 0.0
2017-Sep-21 05:00N 44°19' E 028°37'0 0.0
2017-Sep-21 04:31N 44°19' E 028°37'0 0.0
2017-Sep-21 04:01N 44°19' E 028°37'0 0.0
2017-Sep-21 03:31N 44°19' E 028°37'0 0.0
2017-Sep-21 03:00N 44°19' E 028°37'0 0.0
2017-Sep-21 02:30N 44°19' E 028°37'0 0.0
2017-Sep-21 02:01N 44°19' E 028°37'0 0.0
2017-Sep-21 01:30N 44°19' E 028°37'0 0.0
2017-Sep-21 01:00N 44°19' E 028°37'0 0.0
2017-Sep-21 00:30N 44°19' E 028°37'0 0.0
2017-Sep-21 00:00N 44°19' E 028°37'0 0.0
2017-Sep-20 23:30N 44°19' E 028°37'0 0.0
2017-Sep-20 23:00N 44°19' E 028°37'0 0.0
2017-Sep-20 22:31N 44°19' E 028°37'0 0.0
2017-Sep-20 22:00N 44°19' E 028°37'0 0.0
2017-Sep-20 21:31N 44°19' E 028°37'0 0.0
2017-Sep-20 21:01N 44°19' E 028°37'0 0.0
2017-Sep-20 20:30N 44°19' E 028°37'0 0.0
2017-Sep-20 20:01N 44°19' E 028°37'0 0.0
2017-Sep-20 19:30N 44°19' E 028°37'0 0.0
2017-Sep-20 19:00N 44°19' E 028°37'0 0.0
2017-Sep-20 18:30N 44°19' E 028°37'0 0.0
2017-Sep-20 17:57N 44°19' E 028°37'0 0.0
2017-Sep-20 17:30N 44°19' E 028°37'0 0.0
2017-Sep-20 17:00N 44°19' E 028°37'0 0.0
2017-Sep-20 16:30N 44°19' E 028°37'0 0.0
2017-Sep-20 15:59N 44°19' E 028°37'0 0.0
2017-Sep-20 15:30N 44°19' E 028°37'0 0.0
2017-Sep-20 15:00N 44°19' E 028°37'0 0.0
2017-Sep-20 14:00N 44°19' E 028°37'0 0.0
2017-Sep-20 13:31N 44°19' E 028°37'0 0.0
2017-Sep-20 13:00N 44°19' E 028°37'0 0.0
2017-Sep-20 12:30N 44°19' E 028°37'0 0.0
2017-Sep-20 12:00N 44°19' E 028°37'0 0.0
2017-Sep-20 11:30N 44°19' E 028°37'0 0.0
2017-Sep-20 11:01N 44°19' E 028°37'1 2.0
2017-Sep-20 10:31N 44°18' E 028°37'3 6.3
2017-Sep-20 10:00N 44°16' E 028°34'1 2.1
2017-Sep-20 09:30N 44°16' E 028°32'5 5.4
2017-Sep-20 08:34N 44°14' E 028°26'2 6.7
2017-Sep-20 08:14N 44°13' E 028°23'2 6.6
2017-Sep-20 07:59N 44°14' E 028°22'3 6.3
2017-Sep-20 07:30N 44°15' E 028°18'7 7.2
2017-Sep-20 06:31N 44°16' E 028°08'0 6.9
2017-Sep-20 06:30N 44°16' E 028°08'  
2017-Sep-17 06:26N 44°15' E 027°53'27 4.5
2017-Sep-17 00:25N 44°08' E 027°17'0 0.0
2017-Sep-16 23:58N 44°08' E 027°17'0 0.0
2017-Sep-16 23:30N 44°08' E 027°17'0 0.0
2017-Sep-16 23:00N 44°08' E 027°17'0 0.0
2017-Sep-16 22:30N 44°08' E 027°17'0 0.0
2017-Sep-16 22:00N 44°08' E 027°17'0 0.0
2017-Sep-16 21:30N 44°08' E 027°17'0 0.0
2017-Sep-16 21:00N 44°08' E 027°17'0 0.0
2017-Sep-16 20:30N 44°08' E 027°17'  

Dump ship's entire track history